Weather observations for the past three days for
Grand Forks, Grand Forks International Airport
Imperial (Metric)
Date Time (cdt) Wind (mph) Vis. (mi.) Weather Sky Cond. Temperature (ºF) Relative Humidity Wind Chill (°F) Heat Index (°F) Pressure Precipitation (in)
Air Dwpt 6 hour altimeter (in) sea level (mb) 1 hr 3 hr 6 hr
Max. Min.
04 00:53 N 26 G 44 10.00 Partly Cloudy and Windy SCT110 52 36 73.9 52 55% 29.4 995.8
03 23:53 NW 18 10.00 Overcast OVC095 61 42.1 50% 29.34 993.5
03 22:53 W 13 10.00 Partly Cloudy FEW065 SCT090 SCT110 64.9 34 32% 29.32 992.7
03 21:53 SW 16 10.00 Overcast OVC110 64 33.1 32% 29.31 992.6
03 20:53 SW 16 10.00 Mostly Cloudy BKN120 68 32 26% 29.35 993.9
03 19:53 SW 15 G 29 10.00 Mostly Cloudy BKN120 72 30 21% 29.39 995.5
03 18:53 W 26 G 39 10.00 Mostly Cloudy and Windy FEW060 BKN100 BKN200 75 26.1 75.9 68 16% 76 29.43 996.9
03 17:53 W 25 G 38 10.00 Mostly Cloudy and Breezy FEW060 BKN100 BKN250 75 27 17% 76 29.47 998.2
03 16:53 W 20 G 31 10.00 Mostly Cloudy SCT050 BKN100 BKN250 73 30 20% 29.51 999.8
03 15:53 W 21 G 32 10.00 Mostly Cloudy and Breezy SCT040 SCT090 BKN250 73 30 20% 29.57 1001.5
03 14:53 W 24 G 36 10.00 Mostly Cloudy and Breezy FEW040 SCT090 BKN250 73 30 20% 29.62 1003.2
03 13:53 W 23 G 32 10.00 Partly Cloudy and Breezy SCT250 72 30.9 22% 29.65 1004.4
03 12:53 W 15 G 28 10.00 A Few Clouds FEW250 68 30.9 68 35.1 25% 29.71 1006.4
03 11:53 NW 12 G 23 10.00 A Few Clouds FEW250 64.9 28 25% 29.75 1007.7
03 10:53 W 15 G 22 10.00 A Few Clouds FEW250 62.1 25 24% 29.78 1008.9
03 09:53 W 6 10.00 A Few Clouds FEW250 55.9 24.1 29% 29.81 1009.9
03 08:53 W 8 10.00 A Few Clouds FEW250 51.1 25 36% 29.83 1010.3
03 07:53 W 9 10.00 Fair CLR 44.1 26.1 49% 40 29.83 1010.6
03 06:53 W 7 10.00 Fair CLR 35.1 25 43 30.9 67% 30 29.83 1010.4
03 05:53 NW 7 10.00 Fair CLR 30.9 24.1 76% 25 29.82 1010.1
03 04:53 NW 6 10.00 Fair CLR 35.1 26.1 70% 31 29.82 1010.1
03 03:53 NW 9 10.00 Fair CLR 37 27 67% 31 29.82 1009.9
03 02:53 NW 10 10.00 Fair CLR 39 27 62% 33 29.8 1009.7
03 01:53 NW 12 10.00 Fair CLR 42.1 30 62% 36 29.8 1009.5
03 00:53 N 7 10.00 Fair CLR 43 34 69.1 43 71% 39 29.79 1009.3
02 23:53 N 12 10.00 Fair CLR 48.9 36 61% 45 29.79 1009.1
02 22:53 N 12 10.00 Fair CLR 50 37 61% 46 29.78 1008.6
02 21:53 N 7 10.00 Fair CLR 46 37.9 73% 43 29.76 1008.0
02 20:53 NE 14 10.00 A Few Clouds FEW040 57.9 37.9 48% 29.72 1006.9
02 19:53 NE 17 G 29 10.00 A Few Clouds FEW055 FEW120 63 39 41% 29.7 1006.1
02 18:53 N 18 10.00 A Few Clouds FEW075 FEW130 69.1 33.1 75 64 26% 29.67 1005.0
02 17:53 N 17 G 28 10.00 Mostly Cloudy SCT095 BKN130 72 33.1 24% 29.66 1004.9
02 16:53 SW 10 G 26 10.00 Mostly Cloudy BKN100 BKN130 73 32 22% 29.67 1004.8
02 15:53 SW 16 G 28 10.00 Mostly Cloudy SCT095 BKN130 72 32 23% 29.7 1006.0
02 14:53 SW 16 G 25 10.00 Mostly Cloudy FEW080 BKN100 69.1 30.9 24% 29.73 1007.1
02 13:53 SW 17 10.00 Mostly Cloudy FEW050 BKN095 66 30.9 27% 29.77 1008.7
02 12:53 Calm 10.00 Light Rain FEW050 SCT065 OVC090 64 33.1 68 39.9 32% 29.8 1009.7
02 11:53 W 17 G 25 10.00 Overcast BKN110 OVC150 64 30 28% 29.81 1009.9
02 10:53 W 16 G 25 10.00 Overcast OVC140 66.9 30.9 26% 29.82 1010.4
02 09:53 W 8 10.00 Overcast OVC150 61 30 31% 29.85 1011.1
02 08:53 SW 9 10.00 Partly Cloudy SCT250 50 32 50% 47 29.87 1012.0
02 07:53 S 14 10.00 Partly Cloudy FEW120 SCT250 42.1 28.9 60% 35 29.89 1012.8
02 06:53 S 13 10.00 Partly Cloudy FEW120 SCT250 39.9 28 39.9 35.1 63% 33 29.91 1013.4
02 05:53 S 10 10.00 Fair CLR 36 27 70% 29 29.93 1014.0
02 04:53 S 12 10.00 Fair CLR 37 26.1 65% 30 29.94 1014.4
02 03:53 S 9 10.00 Fair CLR 35.1 25 67% 29 29.97 1015.4
02 02:53 S 8 10.00 Overcast OVC100 37 25 62% 32 29.99 1016.4
02 01:53 S 9 10.00 Fair CLR 36 25 64% 30 30.01 1017.1
02 00:53 S 9 10.00 Fair CLR 37 25 55.9 34 62% 31 30.03 1017.7
01 23:53 S 8 10.00 A Few Clouds FEW100 36 25 64% 30 30.03 1017.9
01 22:53 S 7 10.00 A Few Clouds FEW190 35.1 24.1 64% 30 30.04 1018.3
01 21:53 SE 7 10.00 A Few Clouds FEW060 46 23 40% 43 30.05 1018.3
01 20:53 SE 6 10.00 A Few Clouds FEW060 51.1 21.9 32% 30.05 1018.2
01 19:53 Calm 10.00 A Few Clouds FEW060 55 19 24% 30.05 1018.5
01 18:53 Calm 10.00 A Few Clouds FEW060 55.9 18 57 48 22% 30.06 1018.9
01 17:53 NW 7 10.00 A Few Clouds FEW060 57 19 23% 30.07 1019.2
01 16:53 NE 6 10.00 Fair CLR 55.9 19 24% 30.08 1019.5
01 15:53 NW 6 10.00 A Few Clouds FEW060 55.9 19.9 24% 30.09 1019.9
01 14:53 Vrbl 6 10.00 A Few Clouds FEW060 53.1 21.9 30% 30.11 1020.4
01 13:53 Vrbl 5 10.00 A Few Clouds FEW060 50 21.9 33% 49 30.12 1021.0
01 12:53 Vrbl 5 10.00 Fair CLR 48.9 23 50 21 36% 48 30.14 1021.5
01 11:53 E 3 10.00 Fair CLR 46.9 21.9 37% 30.15 1021.9
01 10:53 Vrbl 5 10.00 Fair CLR 45 23 42% 43 30.15 1022.1
01 09:53 N 6 10.00 Fair CLR 43 24.1 47% 40 30.16 1022.3
01 08:53 N 7 10.00 Fair CLR 37.4 24.8 60% 33 30.17 0.0
01 07:53 NW 7 10.00 Fair CLR 33.1 24.1 70% 28 30.16 1022.4
01 06:53 W 6 10.00 Fair CLR 24.1 19 28 21 81% 18 30.15 1022.2
01 05:53 NW 6 10.00 Fair CLR 21 17.1 85% 14 30.14 1021.7
01 04:53 NW 3 10.00 Fair CLR 21 17.1 85% 30.13 1021.5
01 03:53 NW 5 10.00 Fair CLR 21.9 17.1 82% 16 30.12 1021.2
01 02:53 W 5 10.00 Fair CLR 24.1 18 77% 19 30.12 1021.0
01 01:53 NW 7 10.00 Fair CLR 25 19 78% 18 30.12 1021.0
Date Time (cdt) Wind (mph) Vis. (mi.) Weather Sky Cond. Air Dwpt Max. Min. Relative Humidity Wind Chill (°F) Heat Index (°F) altimeter (in) sea level (mb) 1 hr 3 hr 6 hr
6 hour
Temperature (ºF) Pressure Precipitation (in)